createdAt,value
2022-12-20T00:01:07.693Z,1.04
2022-12-20T00:03:35.394Z,1.04
2022-12-20T00:06:03.228Z,1.04
2022-12-20T00:08:31.561Z,1.05
2022-12-20T00:11:01.840Z,1.04
2022-12-20T00:13:29.503Z,1.06
2022-12-20T00:16:15.193Z,1.05
2022-12-20T00:18:44.090Z,1.04
2022-12-20T00:21:14.043Z,1.05
2022-12-20T00:23:41.886Z,1.06
2022-12-20T00:26:18.313Z,1.07
2022-12-20T00:28:46.939Z,1.07
2022-12-20T00:31:16.449Z,1.06
2022-12-20T00:33:49.611Z,1.07
2022-12-20T00:36:18.265Z,1.05
2022-12-20T00:38:48.304Z,1.04
2022-12-20T00:41:19.060Z,1.02
2022-12-20T00:43:47.345Z,1.00
2022-12-20T00:46:16.284Z,1.01
2022-12-20T00:48:44.164Z,1.02
2022-12-20T00:51:14.821Z,1.04
2022-12-20T00:53:42.697Z,1.05
2022-12-20T00:56:10.855Z,1.07
2022-12-20T00:58:40.325Z,1.09
2022-12-20T01:22:47.151Z,1.06
2022-12-20T01:25:15.634Z,1.06
2022-12-20T01:27:43.245Z,1.10
2022-12-20T01:30:11.921Z,1.14
2022-12-20T01:32:39.617Z,1.18
2022-12-20T01:35:07.454Z,1.20
2022-12-20T01:37:35.468Z,1.23
2022-12-20T01:40:03.617Z,1.26
2022-12-20T01:42:31.331Z,1.27
2022-12-20T01:44:59.599Z,1.28
2022-12-20T01:47:30.381Z,1.30
2022-12-20T01:49:59.042Z,1.32
2022-12-20T01:52:32.014Z,1.33
2022-12-20T01:55:07.605Z,1.35
2022-12-20T01:57:44.011Z,1.36
2022-12-20T02:00:12.754Z,1.36
2022-12-20T02:02:46.025Z,1.36
2022-12-20T02:05:14.730Z,1.37
2022-12-20T02:07:47.563Z,1.39
2022-12-20T02:10:17.346Z,1.42
2022-12-20T02:12:46.532Z,1.44
2022-12-20T02:15:43.189Z,1.46
2022-12-20T02:18:20.085Z,1.47
2022-12-20T02:20:57.084Z,1.48
2022-12-20T02:23:54.377Z,1.49
2022-12-20T02:26:45.813Z,1.50
2022-12-20T02:29:58.360Z,1.51
2022-12-20T02:32:32.889Z,1.51
2022-12-20T02:35:00.513Z,1.53
2022-12-20T02:37:28.152Z,1.57
2022-12-20T02:39:55.796Z,1.62
2022-12-20T02:42:25.595Z,1.65
2022-12-20T02:45:17.177Z,1.68
2022-12-20T02:47:54.100Z,1.69
2022-12-20T02:50:31.945Z,1.70
2022-12-20T02:53:00.187Z,1.72
2022-12-20T02:55:48.080Z,1.75
2022-12-20T02:58:28.542Z,1.75
2022-12-20T03:01:04.291Z,1.73
2022-12-20T03:03:34.322Z,1.73
2022-12-20T03:06:02.080Z,1.74
2022-12-20T03:08:31.044Z,1.77
2022-12-20T03:10:58.900Z,1.78
2022-12-20T03:13:26.966Z,1.80
2022-12-20T03:15:58.849Z,1.80
2022-12-20T03:18:27.292Z,1.83
2022-12-20T03:20:54.924Z,1.86
2022-12-20T03:23:22.602Z,1.87
2022-12-20T03:25:50.723Z,1.89
2022-12-20T03:28:27.225Z,1.92
2022-12-20T03:30:55.714Z,1.93
2022-12-20T03:33:23.612Z,1.96
2022-12-20T03:35:51.961Z,1.99
2022-12-20T03:38:19.887Z,2.00
2022-12-20T03:40:47.554Z,2.02
2022-12-20T03:43:17.762Z,2.02
2022-12-20T03:45:45.474Z,2.02
2022-12-20T03:48:13.386Z,2.04
2022-12-20T03:50:41.211Z,2.05
2022-12-20T03:53:09.188Z,2.05
2022-12-20T03:55:36.977Z,2.06
2022-12-20T03:58:04.670Z,2.05
2022-12-20T04:00:34.728Z,2.05
2022-12-20T04:03:18.083Z,2.04
2022-12-20T04:05:46.185Z,2.04
2022-12-20T04:08:14.102Z,2.04
2022-12-20T04:11:00.763Z,2.07
2022-12-20T04:13:32.460Z,2.06
2022-12-20T04:16:01.375Z,2.06
2022-12-20T04:18:32.117Z,2.07
2022-12-20T04:21:01.603Z,2.08
2022-12-20T04:23:30.923Z,2.08
2022-12-20T04:25:59.523Z,2.09
2022-12-20T04:31:24.388Z,2.07
2022-12-20T04:33:53.215Z,2.06
2022-12-20T04:36:22.272Z,2.07
2022-12-20T04:38:51.350Z,2.08
2022-12-20T04:41:22.464Z,2.08
2022-12-20T04:43:55.506Z,2.09
2022-12-20T04:46:25.716Z,2.08
2022-12-20T04:48:57.972Z,2.09
2022-12-20T04:51:28.095Z,2.09
2022-12-20T04:53:56.254Z,2.08
2022-12-20T04:56:29.687Z,2.07
2022-12-20T04:59:02.519Z,2.06
2022-12-20T05:01:31.157Z,2.04
2022-12-20T05:03:59.006Z,2.05
2022-12-20T05:06:27.599Z,2.04
2022-12-20T05:08:55.610Z,2.03
2022-12-20T05:11:23.615Z,2.03
2022-12-20T05:13:51.648Z,2.02
2022-12-20T05:16:20.793Z,2.02
2022-12-20T05:18:49.660Z,2.02
2022-12-20T05:21:37.174Z,2.02
2022-12-20T05:24:24.724Z,2.00
2022-12-20T05:26:57.850Z,1.98
2022-12-20T05:29:26.649Z,1.96
2022-12-20T05:31:54.931Z,1.97
2022-12-20T05:34:23.058Z,1.97
2022-12-20T05:36:53.936Z,1.96
2022-12-20T05:39:23.173Z,1.96
2022-12-20T05:41:53.705Z,1.95
2022-12-20T05:44:22.671Z,1.96
2022-12-20T05:46:53.079Z,1.96
2022-12-20T05:49:26.069Z,1.97
2022-12-20T05:51:54.459Z,1.98
2022-12-20T05:54:25.566Z,2.01
2022-12-20T05:57:01.265Z,2.00
2022-12-20T05:59:35.280Z,2.01
2022-12-20T06:02:03.825Z,2.00
2022-12-20T06:04:33.312Z,2.01
2022-12-20T06:07:05.415Z,2.01
2022-12-20T06:09:33.573Z,2.02
2022-12-20T06:12:06.320Z,2.02
2022-12-20T06:14:35.081Z,2.02
2022-12-20T06:17:02.991Z,2.02
2022-12-20T06:19:32.270Z,2.01
2022-12-20T06:22:01.195Z,2.01
2022-12-20T06:24:44.326Z,1.99
2022-12-20T06:27:16.067Z,1.97
2022-12-20T06:29:51.710Z,1.94
2022-12-20T06:32:22.208Z,1.92
2022-12-20T06:34:51.086Z,1.90
2022-12-20T06:37:18.694Z,1.88
2022-12-20T06:39:46.556Z,1.86
2022-12-20T06:42:15.200Z,1.84
2022-12-20T06:44:44.758Z,1.82
2022-12-20T06:47:12.639Z,1.81
2022-12-20T06:49:40.406Z,1.80
2022-12-20T06:52:16.239Z,1.81
2022-12-20T06:54:49.713Z,1.81
2022-12-20T06:57:17.314Z,1.83
2022-12-20T06:59:47.979Z,1.86
2022-12-20T07:02:15.920Z,1.90
2022-12-20T07:04:43.828Z,1.91
2022-12-20T07:07:13.284Z,1.92
2022-12-20T07:09:42.647Z,1.93
2022-12-20T07:12:10.769Z,1.94
2022-12-20T07:14:38.405Z,1.96
2022-12-20T07:17:07.602Z,1.96
2022-12-20T07:19:36.447Z,1.97
2022-12-20T07:22:05.623Z,1.98
2022-12-20T07:24:33.792Z,1.98
2022-12-20T07:27:01.760Z,1.98
2022-12-20T07:29:30.154Z,2.01
2022-12-20T07:31:57.834Z,2.03
2022-12-20T07:34:25.518Z,2.04
2022-12-20T07:36:53.717Z,2.07
2022-12-20T07:39:21.321Z,2.09
2022-12-20T07:41:48.974Z,2.10
2022-12-20T07:44:17.884Z,2.13
2022-12-20T07:46:45.594Z,2.14
2022-12-20T07:49:13.832Z,2.14
2022-12-20T07:51:44.801Z,2.15
2022-12-20T07:54:16.196Z,2.15
2022-12-20T07:56:47.256Z,2.16
2022-12-20T07:59:20.407Z,2.16
2022-12-20T08:01:48.944Z,2.18
2022-12-20T08:04:21.722Z,2.20
2022-12-20T08:06:50.571Z,2.23
2022-12-20T08:09:18.907Z,2.26
2022-12-20T08:11:48.763Z,2.27
2022-12-20T08:26:59.721Z,2.44
2022-12-20T08:29:27.494Z,2.41
2022-12-20T08:31:55.109Z,2.45
2022-12-20T08:34:22.741Z,2.51
2022-12-20T08:36:50.451Z,2.56
2022-12-20T08:39:18.207Z,2.60
2022-12-20T08:41:45.897Z,2.63
2022-12-20T08:44:13.647Z,2.66
2022-12-20T08:46:41.476Z,2.66
2022-12-20T08:49:09.110Z,2.67
2022-12-20T08:51:36.844Z,2.67
2022-12-20T08:54:04.583Z,2.68
2022-12-20T08:56:32.227Z,2.69
2022-12-20T08:58:59.917Z,2.69
2022-12-20T09:01:30.252Z,2.72
2022-12-20T09:03:58.070Z,2.75
2022-12-20T09:06:26.152Z,2.79
2022-12-20T09:08:55.686Z,2.82
2022-12-20T09:11:24.935Z,2.83
2022-12-20T09:13:54.975Z,2.85
2022-12-20T09:16:25.749Z,2.86
2022-12-20T09:19:00.685Z,2.88
2022-12-20T09:21:30.398Z,2.89
2022-12-20T09:23:58.073Z,2.90
2022-12-20T09:26:26.111Z,2.91
2022-12-20T09:28:54.148Z,2.93
2022-12-20T09:31:24.063Z,2.95
2022-12-20T09:33:55.941Z,2.96
2022-12-20T09:36:25.853Z,2.97
2022-12-20T09:38:54.349Z,3.00
2022-12-20T09:41:40.587Z,3.03
2022-12-20T09:44:26.606Z,3.06
2022-12-20T09:47:09.756Z,3.08
2022-12-20T09:49:43.149Z,3.12
2022-12-20T09:52:36.570Z,3.17
2022-12-20T09:55:30.748Z,3.20
2022-12-20T09:58:03.770Z,3.25
2022-12-20T10:00:36.708Z,3.32
2022-12-20T10:03:10.510Z,3.41
2022-12-20T10:05:59.491Z,3.49
2022-12-20T10:08:56.284Z,3.52
2022-12-20T10:11:50.505Z,3.51
2022-12-20T10:14:21.683Z,3.50
2022-12-20T10:16:54.624Z,3.55
2022-12-20T10:19:50.645Z,3.60
2022-12-20T10:22:23.703Z,3.61
2022-12-20T10:24:59.932Z,3.62
2022-12-20T10:27:27.624Z,3.64
2022-12-20T10:29:55.395Z,3.63
2022-12-20T10:32:24.258Z,3.61
2022-12-20T10:35:10.337Z,3.62
2022-12-20T10:37:41.299Z,3.62
2022-12-20T10:40:46.396Z,3.63
2022-12-20T10:43:20.824Z,3.59
2022-12-20T10:46:06.423Z,3.58
2022-12-20T10:48:42.371Z,3.56
2022-12-20T10:51:15.535Z,3.55
2022-12-20T10:54:04.213Z,3.54
2022-12-20T10:56:34.196Z,3.53
2022-12-20T10:59:24.247Z,3.51
2022-12-20T11:01:52.000Z,3.51
2022-12-20T11:04:34.892Z,3.52
2022-12-20T11:07:04.642Z,3.52
2022-12-20T11:09:37.424Z,3.50
2022-12-20T11:12:16.547Z,3.49
2022-12-20T11:14:46.399Z,3.48
2022-12-20T11:17:14.084Z,3.51
2022-12-20T11:19:56.399Z,3.54
2022-12-20T11:22:53.219Z,3.54
2022-12-20T11:25:55.548Z,3.52
2022-12-20T11:28:54.242Z,3.57
2022-12-20T11:31:50.245Z,3.60
2022-12-20T11:34:20.778Z,3.62
2022-12-20T11:37:20.460Z,3.68
2022-12-20T11:40:25.205Z,3.78
2022-12-20T11:43:11.660Z,3.89
2022-12-20T11:45:54.730Z,4.02
2022-12-20T11:49:03.670Z,4.14
2022-12-20T11:51:55.381Z,4.27
2022-12-20T11:54:34.774Z,4.33
2022-12-20T11:57:07.551Z,4.36
2022-12-20T11:59:45.379Z,4.39
2022-12-20T12:02:14.324Z,4.39
2022-12-20T12:04:55.620Z,4.37
2022-12-20T12:07:28.979Z,4.31
2022-12-20T12:10:18.670Z,4.27
2022-12-20T12:12:58.750Z,4.24
2022-12-20T12:15:47.541Z,4.20
2022-12-20T12:18:21.414Z,4.18
2022-12-20T12:20:49.531Z,4.15
2022-12-20T12:23:23.436Z,4.15
2022-12-20T12:25:51.584Z,4.14
2022-12-20T12:28:21.017Z,4.13
2022-12-20T12:30:54.196Z,4.12
2022-12-20T12:33:38.693Z,4.11
2022-12-20T12:36:32.782Z,4.09
2022-12-20T12:39:33.542Z,4.02
2022-12-20T12:42:12.559Z,3.96
2022-12-20T12:44:46.310Z,3.94
2022-12-20T12:47:23.774Z,3.93
2022-12-20T12:49:53.054Z,3.90
2022-12-20T12:52:42.044Z,3.87
2022-12-20T12:55:35.032Z,3.83
2022-12-20T12:58:24.565Z,3.80
2022-12-20T13:01:08.986Z,3.77
2022-12-20T13:04:10.381Z,3.76
2022-12-20T13:06:38.012Z,3.75
2022-12-20T13:09:06.154Z,3.75
2022-12-20T13:11:36.718Z,3.76
2022-12-20T13:14:22.958Z,3.77
2022-12-20T13:17:12.819Z,3.77
2022-12-20T13:20:01.744Z,3.76
2022-12-20T13:22:29.783Z,3.75
2022-12-20T13:25:03.071Z,3.74
2022-12-20T13:27:39.169Z,3.72
2022-12-20T13:30:07.063Z,3.71
2022-12-20T13:32:46.861Z,3.71
2022-12-20T13:35:27.925Z,3.69
2022-12-20T13:37:57.347Z,3.67
2022-12-20T13:40:59.685Z,3.66
2022-12-20T13:43:42.562Z,3.62
2022-12-20T13:46:10.368Z,3.57
2022-12-20T13:48:38.150Z,3.55
2022-12-20T13:51:07.841Z,3.54
2022-12-20T13:53:35.778Z,3.53
2022-12-20T13:56:28.853Z,3.52
2022-12-20T13:58:58.323Z,3.48
2022-12-20T14:01:26.898Z,3.46
2022-12-20T14:03:54.944Z,3.44
2022-12-20T14:06:26.978Z,3.42
2022-12-20T14:08:55.064Z,3.41
2022-12-20T14:11:27.067Z,3.39
2022-12-20T14:13:57.624Z,3.37
2022-12-20T14:16:27.533Z,3.36
2022-12-20T14:18:58.188Z,3.34
2022-12-20T14:21:26.005Z,3.32
2022-12-20T14:23:56.606Z,3.31
2022-12-20T14:26:37.121Z,3.29
2022-12-20T14:29:11.039Z,3.28
2022-12-20T14:31:41.968Z,3.27
2022-12-20T14:34:12.989Z,3.27
2022-12-20T14:36:47.401Z,3.27
2022-12-20T14:39:34.262Z,3.26
2022-12-20T14:42:22.407Z,3.25
2022-12-20T14:44:50.086Z,3.22
2022-12-20T14:47:26.055Z,3.24
2022-12-20T14:50:02.103Z,3.25
2022-12-20T14:52:32.787Z,3.25
2022-12-20T14:55:08.284Z,3.25
2022-12-20T14:57:36.968Z,3.26
2022-12-20T15:00:28.082Z,3.26
2022-12-20T15:02:55.879Z,3.24
2022-12-20T15:05:36.696Z,3.26
2022-12-20T15:08:11.590Z,3.25
2022-12-20T15:10:42.912Z,3.25
2022-12-20T15:13:13.736Z,3.25
2022-12-20T15:15:42.075Z,3.26
2022-12-20T15:18:18.084Z,3.25
2022-12-20T15:20:49.520Z,3.25
2022-12-20T15:23:20.028Z,3.25
2022-12-20T15:25:48.622Z,3.24
2022-12-20T15:28:21.936Z,3.23
2022-12-20T15:30:50.996Z,3.21
2022-12-20T15:33:22.009Z,3.20
2022-12-20T15:35:49.782Z,3.19
2022-12-20T15:38:34.608Z,3.19
2022-12-20T15:41:13.889Z,3.17
2022-12-20T15:43:41.567Z,3.16
2022-12-20T15:46:09.595Z,3.17
2022-12-20T15:48:37.239Z,3.17
2022-12-20T15:51:30.774Z,3.18
2022-12-20T15:54:00.346Z,3.17
2022-12-20T15:56:28.567Z,3.17
2022-12-20T15:58:56.908Z,3.17
2022-12-20T16:01:40.025Z,3.18
2022-12-20T16:04:14.988Z,3.17
2022-12-20T16:06:44.285Z,3.16
2022-12-20T16:09:12.483Z,3.16
2022-12-20T16:11:40.759Z,3.16
2022-12-20T16:14:17.535Z,3.17
2022-12-20T16:16:45.637Z,3.17
2022-12-20T16:19:13.398Z,3.16
2022-12-20T16:21:45.349Z,3.16
2022-12-20T16:24:15.048Z,3.16
2022-12-20T16:26:42.791Z,3.15
2022-12-20T16:29:10.596Z,3.14
2022-12-20T16:31:40.314Z,3.13
2022-12-20T16:34:16.539Z,3.13
2022-12-20T16:36:44.520Z,3.14
2022-12-20T16:39:12.318Z,3.15
2022-12-20T16:41:41.111Z,3.16
2022-12-20T16:44:13.347Z,3.17
2022-12-20T16:46:41.466Z,3.18
2022-12-20T16:49:15.010Z,3.17
2022-12-20T16:51:48.948Z,3.15
2022-12-20T16:54:22.404Z,3.14
2022-12-20T16:56:55.336Z,3.12
2022-12-20T16:59:24.308Z,3.10
2022-12-20T17:01:53.602Z,3.08
2022-12-20T17:04:21.879Z,3.06
2022-12-20T17:06:50.162Z,3.05
2022-12-20T17:12:18.857Z,3.05
2022-12-20T17:14:47.497Z,3.04
2022-12-20T17:17:15.633Z,3.04
2022-12-20T17:19:43.482Z,3.03
2022-12-20T17:24:58.188Z,2.98
2022-12-20T17:27:25.854Z,2.97
2022-12-20T17:29:53.747Z,2.96
2022-12-20T17:32:23.413Z,2.94
2022-12-20T17:34:51.392Z,2.91
2022-12-20T17:37:19.089Z,2.90
2022-12-20T17:39:46.939Z,2.88
2022-12-20T17:42:14.659Z,2.88
2022-12-20T17:44:42.543Z,2.88
2022-12-20T17:47:11.596Z,2.88
2022-12-20T17:49:39.701Z,2.88
2022-12-20T17:52:13.598Z,2.89
2022-12-20T17:54:41.535Z,2.88
2022-12-20T17:57:16.012Z,2.89
2022-12-20T17:59:44.360Z,2.88
2022-12-20T18:02:23.926Z,2.87
2022-12-20T18:04:53.424Z,2.85
2022-12-20T18:07:21.250Z,2.84
2022-12-20T18:09:49.194Z,2.84
2022-12-20T18:12:17.563Z,2.84
2022-12-20T18:14:48.443Z,2.83
2022-12-20T18:17:16.559Z,2.83
2022-12-20T18:19:45.535Z,2.83
2022-12-20T18:22:14.341Z,2.83
2022-12-20T18:24:42.042Z,2.83
2022-12-20T18:27:09.986Z,2.83
2022-12-20T18:29:37.642Z,2.83
2022-12-20T18:32:05.716Z,2.82
2022-12-20T18:34:33.594Z,2.79
2022-12-20T18:37:05.519Z,2.79
2022-12-20T18:39:33.516Z,2.79
2022-12-20T18:42:01.637Z,2.77
2022-12-20T18:44:29.426Z,2.76
2022-12-20T18:46:57.090Z,2.75
2022-12-20T18:49:25.081Z,2.74
2022-12-20T18:51:53.071Z,2.73
2022-12-20T18:54:20.825Z,2.72
2022-12-20T18:56:49.059Z,2.73
2022-12-20T18:59:17.004Z,2.71
2022-12-20T19:01:45.024Z,2.72
2022-12-20T19:04:13.351Z,2.71
2022-12-20T19:06:42.139Z,2.71
2022-12-20T19:09:13.236Z,2.72
2022-12-20T19:11:42.030Z,2.74
2022-12-20T19:14:11.513Z,2.77
2022-12-20T19:16:40.098Z,2.78
2022-12-20T19:19:08.883Z,2.79
2022-12-20T19:21:38.575Z,2.81
2022-12-20T19:24:07.905Z,2.81
2022-12-20T19:26:36.908Z,2.83
2022-12-20T19:29:05.826Z,2.84
2022-12-20T19:31:36.340Z,2.84
2022-12-20T19:34:07.624Z,2.85
2022-12-20T19:36:44.308Z,2.85
2022-12-20T19:39:20.794Z,2.85
2022-12-20T19:42:21.403Z,2.86
2022-12-20T19:44:37.717Z,2.86
2022-12-20T19:47:05.709Z,2.87
2022-12-20T19:49:35.439Z,2.88
2022-12-20T19:52:03.459Z,2.89
2022-12-20T19:54:31.484Z,2.89
2022-12-20T19:56:59.129Z,2.89
2022-12-20T19:59:26.896Z,2.88
2022-12-20T20:01:54.682Z,2.89
2022-12-20T20:04:23.881Z,2.89
2022-12-20T20:06:51.503Z,2.90
2022-12-20T20:09:19.140Z,2.90
2022-12-20T20:11:46.864Z,2.91
2022-12-20T20:14:14.530Z,2.91
2022-12-20T20:16:42.230Z,2.92
2022-12-20T20:19:10.044Z,2.92
2022-12-20T20:21:38.131Z,2.93
2022-12-20T20:24:06.275Z,2.92
2022-12-20T20:26:34.251Z,2.92
2022-12-20T20:29:03.084Z,2.91
2022-12-20T20:31:30.828Z,2.92
2022-12-20T20:33:58.714Z,2.91
2022-12-20T20:36:26.534Z,2.88
2022-12-20T20:38:54.211Z,2.90
2022-12-20T20:41:22.641Z,2.91
2022-12-20T20:43:50.339Z,2.91
2022-12-20T20:46:18.682Z,2.91
2022-12-20T20:48:46.539Z,2.90
2022-12-20T20:51:14.659Z,2.90
2022-12-20T20:53:42.399Z,2.89
2022-12-20T20:56:10.496Z,2.90
2022-12-20T20:58:38.582Z,2.88
2022-12-20T21:01:08.549Z,2.88
2022-12-20T21:03:37.507Z,2.86
2022-12-20T21:06:37.269Z,2.86
2022-12-20T21:08:54.695Z,2.84
2022-12-20T21:11:22.919Z,2.84
2022-12-20T21:13:50.881Z,2.85
2022-12-20T21:16:22.523Z,2.85
2022-12-20T21:18:54.678Z,2.86
2022-12-20T21:21:23.695Z,2.86
2022-12-20T21:23:54.541Z,2.87
2022-12-20T21:26:22.979Z,2.89
2022-12-20T21:28:51.803Z,2.88
2022-12-20T21:31:19.767Z,2.88
2022-12-20T21:33:47.554Z,2.88
2022-12-20T21:36:17.533Z,2.88
2022-12-20T21:38:50.247Z,2.88
2022-12-20T21:41:20.115Z,2.90
2022-12-20T21:43:47.920Z,2.90
2022-12-20T21:46:16.372Z,2.89
2022-12-20T21:48:44.776Z,2.89
2022-12-20T21:51:15.676Z,2.89
2022-12-20T21:53:48.441Z,2.89
2022-12-20T21:56:17.510Z,2.89
2022-12-20T21:58:45.830Z,2.89
2022-12-20T22:01:16.247Z,2.90
2022-12-20T22:03:44.482Z,2.91
2022-12-20T22:06:12.468Z,2.91
2022-12-20T22:08:40.199Z,2.90
2022-12-20T22:11:12.889Z,2.91
2022-12-20T22:13:42.233Z,2.92
2022-12-20T22:16:15.946Z,2.91
2022-12-20T22:18:44.555Z,2.91
2022-12-20T22:21:13.949Z,2.91
2022-12-20T22:23:42.070Z,2.90
2022-12-20T22:26:13.208Z,2.91
2022-12-20T22:28:49.483Z,2.91
2022-12-20T22:31:17.794Z,2.90
2022-12-20T22:33:45.560Z,2.90
2022-12-20T22:36:15.316Z,2.91
2022-12-20T22:38:43.423Z,2.92
2022-12-20T22:41:15.388Z,2.92
2022-12-20T22:43:44.911Z,2.93
2022-12-20T22:46:13.677Z,2.93
2022-12-20T22:48:41.702Z,2.94
2022-12-20T22:51:11.757Z,2.95
2022-12-20T22:53:40.306Z,2.96
2022-12-20T22:56:08.631Z,2.96
2022-12-20T22:58:37.104Z,2.96
2022-12-20T23:01:08.556Z,2.97
2022-12-20T23:03:37.317Z,2.97
2022-12-20T23:06:06.728Z,2.96
2022-12-20T23:08:36.400Z,2.96
2022-12-20T23:11:39.585Z,2.95
2022-12-20T23:14:30.314Z,2.93
2022-12-20T23:16:58.598Z,2.90
2022-12-20T23:19:27.018Z,2.90
2022-12-20T23:22:13.172Z,2.91
2022-12-20T23:24:40.836Z,2.90
2022-12-20T23:27:08.491Z,2.91
2022-12-20T23:29:36.124Z,2.91
2022-12-20T23:32:03.861Z,2.91
2022-12-20T23:34:31.740Z,2.91
2022-12-20T23:36:59.426Z,2.91
2022-12-20T23:39:27.082Z,2.91
2022-12-20T23:41:54.759Z,2.90
2022-12-20T23:44:22.534Z,2.89
2022-12-20T23:46:50.264Z,2.89
2022-12-20T23:49:18.001Z,2.87
2022-12-20T23:51:45.687Z,2.89
2022-12-20T23:54:13.402Z,2.88
2022-12-20T23:56:41.093Z,2.87
2022-12-20T23:59:08.812Z,2.86
